Time;durP1;ratioP1;P1;durP2;ratioP2;P2;SDS_P1;SDS_P2;PMS_P1;PMS_P2;Temp;Humidity;BMP_temperature;BMP_pressure;BME280_temperature;BME280_humidity;BME280_pressure;Samples;Min_cycle;Max_cycle;Signal;HPM_P1;HPM_P2
2024/03/27 00:01:18;;;;;;;;;;;;;;;9.43;100.00;100064.69;5021081;28;20024;-75
2024/03/27 00:03:43;;;;;;;;;;;;;;;9.49;100.00;100062.31;5013906;28;19944;-75
2024/03/27 00:06:09;;;;;;;;;;;;;;;9.56;100.00;100056.56;5010317;28;20472;-76
2024/03/27 00:08:35;;;;;;;;;;;;;;;9.58;100.00;100059.19;5010154;28;19960;-76
2024/03/27 00:11:01;;;;;;;;;;;;;;;9.55;100.00;100050.53;5010248;28;20410;-76
2024/03/27 00:13:26;;;;;;;;;;;;;;;9.58;100.00;100051.47;5010024;28;19923;-75
2024/03/27 00:15:52;;;;;;;;;;;;;;;9.37;100.00;100043.03;5010484;28;19929;-75
2024/03/27 00:18:18;;;;;;;;;;;;;;;9.24;100.00;100051.16;5010219;28;19976;-75
2024/03/27 00:20:43;;;;;;;;;;;;;;;9.33;100.00;100048.03;5010766;28;20004;-76
2024/03/27 00:23:09;;;;;;;;;;;;;;;9.11;100.00;100041.22;5009732;28;20016;-75
2024/03/27 00:25:34;;;;;;;;;;;;;;;8.77;100.00;100047.72;5007931;28;20012;-75
2024/03/27 00:28:00;;;;;;;;;;;;;;;8.58;100.00;100040.22;5013720;28;20350;-75
2024/03/27 00:30:25;;;;;;;;;;;;;;;8.34;100.00;100040.09;5013644;28;19921;-75
2024/03/27 00:32:55;;;;;;;;;;;;;;;8.19;100.00;100034.38;5013590;28;19925;-75
2024/03/27 00:35:20;;;;;;;;;;;;;;;8.14;100.00;100043.56;5006783;28;20025;-75
2024/03/27 00:37:45;;;;;;;;;;;;;;;8.08;100.00;100039.06;5013653;28;20039;-75
2024/03/27 00:40:12;;;;;;;;;;;;;;;8.00;100.00;100048.16;5013538;28;19992;-75
2024/03/27 00:42:38;;;;;;;;;;;;;;;8.08;100.00;100051.94;5013578;28;19921;-75
2024/03/27 00:45:03;;;;;;;;;;;;;;;8.12;100.00;100053.78;5013455;28;20335;-75
2024/03/27 00:47:29;;;;;;;;;;;;;;;8.15;100.00;100048.78;5013944;28;19917;-75
2024/03/27 00:49:54;;;;;;;;;;;;;;;8.14;100.00;100049.59;5013095;28;19921;-75
2024/03/27 00:52:20;;;;;;;;;;;;;;;8.16;100.00;100040.25;5013268;28;19925;-75
2024/03/27 00:54:45;;;;;;;;;;;;;;;8.19;100.00;100040.38;5013248;28;19922;-75
2024/03/27 00:57:10;;;;;;;;;;;;;;;8.21;100.00;100035.28;5013293;28;20303;-75
2024/03/27 00:59:35;;;;;;;;;;;;;;;8.20;100.00;100031.84;5013228;28;20277;-75
2024/03/27 01:02:01;;;;;;;;;;;;;;;8.18;100.00;100027.47;5013079;28;19988;-75
2024/03/27 01:04:26;;;;;;;;;;;;;;;8.21;100.00;100037.84;5013276;28;19925;-75
2024/03/27 01:06:52;;;;;;;;;;;;;;;8.18;100.00;100033.47;5012845;28;19918;-75
2024/03/27 01:09:18;;;;;;;;;;;;;;;8.21;100.00;100020.75;5013600;28;19925;-74
2024/03/27 01:11:44;;;;;;;;;;;;;;;8.20;100.00;100028.38;5012777;28;19931;-75
2024/03/27 01:14:09;;;;;;;;;;;;;;;8.21;100.00;100023.31;5012678;28;20024;-75
2024/03/27 01:16:35;;;;;;;;;;;;;;;8.22;100.00;100017.38;5013034;28;20407;-75
2024/03/27 01:19:00;;;;;;;;;;;;;;;8.20;100.00;100008.69;5012725;28;19990;-75
2024/03/27 01:21:25;;;;;;;;;;;;;;;8.23;100.00;100007.94;5013321;28;19918;-75
2024/03/27 01:23:51;;;;;;;;;;;;;;;8.31;100.00;100003.97;5012711;28;19929;-75
2024/03/27 01:26:16;;;;;;;;;;;;;;;8.32;100.00;100003.13;5012527;28;19945;-74
2024/03/27 01:28:41;;;;;;;;;;;;;;;8.32;100.00;99995.41;5012721;28;19917;-74
2024/03/27 01:31:07;;;;;;;;;;;;;;;8.35;100.00;99992.97;5012954;28;19967;-75
2024/03/27 01:33:32;;;;;;;;;;;;;;;8.40;100.00;99993.16;5012915;28;19917;-74
2024/03/27 01:35:57;;;;;;;;;;;;;;;8.43;100.00;99990.69;5012636;28;19979;-75
2024/03/27 01:38:23;;;;;;;;;;;;;;;8.47;100.00;99986.59;5010041;28;19994;-75
2024/03/27 01:40:48;;;;;;;;;;;;;;;8.52;100.00;99995.34;5012107;28;19989;-74
2024/03/27 01:43:13;;;;;;;;;;;;;;;8.59;100.00;99987.03;5009853;28;19965;-75
2024/03/27 01:45:38;;;;;;;;;;;;;;;8.67;100.00;99985.63;5009618;28;19921;-75
2024/03/27 01:48:04;;;;;;;;;;;;;;;8.74;100.00;99979.88;5009630;28;20383;-75
2024/03/27 01:50:29;;;;;;;;;;;;;;;8.86;100.00;99974.31;4984349;28;20415;-75
2024/03/27 01:52:58;;;;;;;;;;;;;;;8.98;100.00;99978.13;5010001;28;19918;-75
2024/03/27 01:55:24;;;;;;;;;;;;;;;9.05;100.00;99975.81;5009453;28;19922;-74
2024/03/27 01:57:50;;;;;;;;;;;;;;;9.18;100.00;99981.41;5009402;28;20351;-74
2024/03/27 02:00:16;;;;;;;;;;;;;;;9.19;100.00;99973.72;5008953;28;19928;-75
2024/03/27 02:02:41;;;;;;;;;;;;;;;9.22;100.00;99976.41;5009163;28;19925;-75
2024/03/27 02:05:10;;;;;;;;;;;;;;;9.26;100.00;99981.66;5009446;28;19925;-75
2024/03/27 02:07:43;;;;;;;;;;;;;;;9.27;100.00;99978.25;5005011;28;19965;-75
2024/03/27 02:10:09;;;;;;;;;;;;;;;9.17;100.00;99974.50;5009277;28;19917;-75
2024/03/27 02:12:34;;;;;;;;;;;;;;;8.90;100.00;99973.59;5009627;28;19968;-75
2024/03/27 02:15:06;;;;;;;;;;;;;;;8.82;100.00;99967.31;5010745;28;19926;-74
2024/03/27 02:17:31;;;;;;;;;;;;;;;8.72;100.00;99966.09;5011675;28;20402;-75
2024/03/27 02:19:56;;;;;;;;;;;;;;;8.69;100.00;99957.38;5011125;28;19925;-75
2024/03/27 02:22:23;;;;;;;;;;;;;;;8.56;100.00;99959.50;5011734;28;19932;-74
2024/03/27 02:24:54;;;;;;;;;;;;;;;8.44;100.00;99961.59;5011458;28;20020;-74
2024/03/27 02:27:19;;;;;;;;;;;;;;;8.29;100.00;99961.88;5012246;28;20446;-75
2024/03/27 02:30:05;;;;;;;;;;;;;;;8.27;100.00;99958.38;5002755;28;20012;-75
2024/03/27 02:32:30;;;;;;;;;;;;;;;8.25;100.00;99954.88;4998322;28;20008;-74
2024/03/27 02:34:56;;;;;;;;;;;;;;;8.21;100.00;99948.75;4998432;28;19980;-75
2024/03/27 02:37:21;;;;;;;;;;;;;;;8.12;100.00;99956.09;4998530;28;19921;-74
2024/03/27 02:39:46;;;;;;;;;;;;;;;8.09;100.00;99950.84;5000104;28;19966;-75
2024/03/27 02:42:12;;;;;;;;;;;;;;;8.02;100.00;99933.44;4991810;28;19921;-75
2024/03/27 02:44:37;;;;;;;;;;;;;;;7.98;100.00;99931.56;4999286;28;20124;-74
2024/03/27 02:47:02;;;;;;;;;;;;;;;7.87;100.00;99920.84;4999759;28;19918;-74
2024/03/27 02:49:28;;;;;;;;;;;;;;;7.73;100.00;99910.03;4988740;28;19933;-74
2024/03/27 02:51:54;;;;;;;;;;;;;;;7.61;100.00;99906.19;4991935;28;19925;-74
2024/03/27 02:54:19;;;;;;;;;;;;;;;7.60;100.00;99907.00;4992424;28;19929;-74
2024/03/27 02:56:44;;;;;;;;;;;;;;;7.64;100.00;99914.81;4999732;28;19929;-74
2024/03/27 02:59:09;;;;;;;;;;;;;;;7.64;100.00;99912.22;5000307;28;20416;-75
2024/03/27 03:01:35;;;;;;;;;;;;;;;7.74;100.00;99917.81;5000134;28;20423;-74
2024/03/27 03:04:00;;;;;;;;;;;;;;;7.94;100.00;99926.28;4999357;28;19978;-74
2024/03/27 03:06:25;;;;;;;;;;;;;;;8.13;100.00;99929.56;4998372;28;20063;-74
2024/03/27 03:08:51;;;;;;;;;;;;;;;8.26;100.00;99924.06;5010983;28;20311;-74
2024/03/27 03:11:17;;;;;;;;;;;;;;;8.42;100.00;99919.47;5010854;28;19925;-74
2024/03/27 03:13:42;;;;;;;;;;;;;;;8.58;100.00;99918.38;5010483;28;20016;-74
2024/03/27 03:16:09;;;;;;;;;;;;;;;8.70;100.00;99915.38;5010772;28;19971;-75
2024/03/27 03:18:35;;;;;;;;;;;;;;;8.81;100.00;99926.94;5010581;28;20499;-75
2024/03/27 03:21:03;;;;;;;;;;;;;;;8.84;100.00;99934.75;5011300;28;19964;-75
2024/03/27 03:23:29;;;;;;;;;;;;;;;8.88;100.00;99939.22;5010675;28;19984;-75
2024/03/27 03:25:54;;;;;;;;;;;;;;;8.93;100.00;99930.75;5010857;28;20372;-75
2024/03/27 03:28:20;;;;;;;;;;;;;;;8.93;100.00;99931.63;5010930;28;20383;-75
2024/03/27 03:30:45;;;;;;;;;;;;;;;8.94;100.00;99933.38;5011153;28;20419;-75
2024/03/27 03:33:10;;;;;;;;;;;;;;;8.97;100.00;99940.34;4988243;28;20303;-75
2024/03/27 03:35:36;;;;;;;;;;;;;;;9.03;100.00;99932.81;4988691;28;20598;-75
2024/03/27 03:38:03;;;;;;;;;;;;;;;9.10;100.00;99936.47;4971955;28;20479;-74
2024/03/27 03:40:28;;;;;;;;;;;;;;;8.99;100.00;99928.41;4988450;28;20012;-75
2024/03/27 03:42:54;;;;;;;;;;;;;;;8.95;100.00;99936.81;4988372;28;20013;-75
2024/03/27 03:45:19;;;;;;;;;;;;;;;8.81;100.00;99934.66;4988093;28;19976;-75
2024/03/27 03:47:45;;;;;;;;;;;;;;;8.77;100.00;99931.91;4988711;28;19922;-75
2024/03/27 03:50:10;;;;;;;;;;;;;;;8.70;100.00;99931.69;4988267;28;19934;-74
2024/03/27 03:52:35;;;;;;;;;;;;;;;8.65;100.00;99934.91;4987773;28;19918;-75
2024/03/27 03:55:01;;;;;;;;;;;;;;;8.71;100.00;99932.56;4981237;28;19928;-75
2024/03/27 03:57:26;;;;;;;;;;;;;;;8.78;100.00;99933.66;4987969;28;19933;-74
2024/03/27 03:59:51;;;;;;;;;;;;;;;8.60;100.00;99900.41;4987896;28;19922;-75
2024/03/27 04:02:17;;;;;;;;;;;;;;;8.72;100.00;99929.16;4990329;28;19922;-74
2024/03/27 04:04:42;;;;;;;;;;;;;;;8.61;100.00;99939.09;4991732;28;19922;-73
2024/03/27 04:07:07;;;;;;;;;;;;;;;8.55;100.00;99937.16;4992107;28;19918;-74
2024/03/27 04:09:32;;;;;;;;;;;;;;;8.56;100.00;99949.22;4993712;28;19925;-74
2024/03/27 04:11:58;;;;;;;;;;;;;;;8.57;100.00;99942.34;5014505;28;19922;-74
2024/03/27 04:14:23;;;;;;;;;;;;;;;8.62;100.00;99943.41;5013620;28;19925;-74
2024/03/27 04:16:49;;;;;;;;;;;;;;;8.45;100.00;99958.19;5013988;28;19988;-74
2024/03/27 04:19:14;;;;;;;;;;;;;;;8.40;100.00;99952.00;4994907;28;19921;-74
2024/03/27 04:21:40;;;;;;;;;;;;;;;8.38;100.00;99951.06;5014581;28;19922;-74
2024/03/27 04:24:05;;;;;;;;;;;;;;;8.45;100.00;99954.72;5013859;28;19921;-74
2024/03/27 04:26:30;;;;;;;;;;;;;;;8.38;100.00;99963.94;5014006;28;19929;-74
2024/03/27 04:28:56;;;;;;;;;;;;;;;8.34;100.00;99954.34;5014105;28;19917;-74
2024/03/27 04:31:21;;;;;;;;;;;;;;;8.35;100.00;99958.66;5013618;28;19929;-74
2024/03/27 04:33:46;;;;;;;;;;;;;;;8.29;100.00;99955.84;5013910;28;19918;-74
2024/03/27 04:36:12;;;;;;;;;;;;;;;8.19;100.00;99947.81;5014012;28;20343;-74
2024/03/27 04:38:37;;;;;;;;;;;;;;;8.15;100.00;99950.19;5013910;28;20285;-74
2024/03/27 04:41:09;;;;;;;;;;;;;;;8.13;100.00;99945.00;5013953;28;19976;-74
2024/03/27 04:43:34;;;;;;;;;;;;;;;8.03;100.00;99951.47;5013664;28;19921;-74
2024/03/27 04:46:00;;;;;;;;;;;;;;;7.92;100.00;99952.75;5013539;28;19921;-74
2024/03/27 04:48:25;;;;;;;;;;;;;;;7.94;100.00;99944.28;5013349;28;19995;-74
2024/03/27 04:50:50;;;;;;;;;;;;;;;8.05;100.00;99949.84;5013840;28;19964;-74
2024/03/27 04:53:16;;;;;;;;;;;;;;;8.14;100.00;99946.75;5014109;28;19921;-74
2024/03/27 04:55:41;;;;;;;;;;;;;;;8.20;100.00;99959.84;5013595;28;19926;-74
2024/03/27 04:58:07;;;;;;;;;;;;;;;7.96;100.00;99969.19;5013280;28;19987;-74
2024/03/27 05:00:32;;;;;;;;;;;;;;;7.85;100.00;99967.06;5013630;28;20479;-74
2024/03/27 05:02:57;;;;;;;;;;;;;;;7.93;100.00;99970.78;5013698;28;19971;-74
2024/03/27 05:05:23;;;;;;;;;;;;;;;8.00;100.00;99963.31;5003474;28;19968;-74
2024/03/27 05:07:48;;;;;;;;;;;;;;;8.07;100.00;99965.31;5022195;28;19917;-74
2024/03/27 05:10:13;;;;;;;;;;;;;;;8.13;100.00;99967.28;5024470;28;19920;-74
2024/03/27 05:12:39;;;;;;;;;;;;;;;8.12;100.00;99968.09;5015787;28;20079;-74
2024/03/27 05:15:05;;;;;;;;;;;;;;;8.14;100.00;99961.28;5027525;28;19979;-74
2024/03/27 05:17:30;;;;;;;;;;;;;;;8.17;100.00;99964.84;5018184;28;19928;-74
2024/03/27 05:19:55;;;;;;;;;;;;;;;8.23;100.00;99964.22;4971378;28;19917;-73
2024/03/27 05:22:27;;;;;;;;;;;;;;;8.25;100.00;99963.47;5024387;28;19920;-73
2024/03/27 05:24:52;;;;;;;;;;;;;;;8.29;100.00;99961.88;5023694;28;20007;-74
2024/03/27 05:27:18;;;;;;;;;;;;;;;8.29;100.00;99972.16;5018727;28;20436;-74
2024/03/27 05:29:44;;;;;;;;;;;;;;;8.32;100.00;99981.69;4986551;28;19932;-74
2024/03/27 05:32:09;;;;;;;;;;;;;;;8.34;100.00;99982.66;5021597;28;19924;-74
2024/03/27 05:34:35;;;;;;;;;;;;;;;8.35;100.00;99981.81;5011142;28;19917;-74
2024/03/27 05:37:00;;;;;;;;;;;;;;;8.41;100.00;99988.06;5021057;28;19930;-74
2024/03/27 05:39:26;;;;;;;;;;;;;;;8.47;100.00;99990.00;5023674;28;20008;-74
2024/03/27 05:41:52;;;;;;;;;;;;;;;8.51;100.00;99997.06;5024015;28;20403;-74
2024/03/27 05:44:17;;;;;;;;;;;;;;;8.51;100.00;99998.72;5022474;28;20367;-74
2024/03/27 05:46:45;;;;;;;;;;;;;;;8.53;100.00;100000.53;5023120;28;19931;-74
2024/03/27 05:49:10;;;;;;;;;;;;;;;8.57;100.00;99999.84;5015465;28;19921;-74
2024/03/27 05:51:38;;;;;;;;;;;;;;;8.62;100.00;99988.84;5024134;28;19928;-73
2024/03/27 05:54:04;;;;;;;;;;;;;;;8.65;100.00;99997.56;5021307;28;20277;-74
2024/03/27 05:56:29;;;;;;;;;;;;;;;8.71;100.00;100002.03;5023589;28;19926;-74
2024/03/27 05:58:55;;;;;;;;;;;;;;;8.74;100.00;99994.44;5023411;28;19925;-74
2024/03/27 06:01:21;;;;;;;;;;;;;;;8.76;100.00;99999.66;5022746;28;19976;-74
2024/03/27 06:03:50;;;;;;;;;;;;;;;8.81;100.00;99985.25;5015317;28;20418;-74
2024/03/27 06:06:15;;;;;;;;;;;;;;;8.84;100.00;99990.50;5011631;28;19967;-74
2024/03/27 06:08:41;;;;;;;;;;;;;;;8.86;100.00;99994.00;5010574;28;19972;-74
2024/03/27 06:11:07;;;;;;;;;;;;;;;8.95;100.00;99994.34;5011853;28;19921;-74
2024/03/27 06:13:33;;;;;;;;;;;;;;;9.06;100.00;99993.03;5011428;28;19922;-74
2024/03/27 06:15:58;;;;;;;;;;;;;;;9.05;100.00;99990.41;5011731;28;20319;-74
2024/03/27 06:18:23;;;;;;;;;;;;;;;9.12;100.00;99987.22;5010398;28;19921;-74
2024/03/27 06:20:49;;;;;;;;;;;;;;;9.14;100.00;99980.41;5011573;28;19923;-74
2024/03/27 06:23:14;;;;;;;;;;;;;;;9.17;100.00;99980.53;5012285;28;19917;-74
2024/03/27 06:25:40;;;;;;;;;;;;;;;9.23;100.00;99978.19;5011311;28;20020;-74
2024/03/27 06:28:05;;;;;;;;;;;;;;;9.35;100.00;99984.56;5011368;28;19933;-74
2024/03/27 06:30:31;;;;;;;;;;;;;;;9.37;100.00;99991.53;5011521;28;19922;-74
2024/03/27 06:32:56;;;;;;;;;;;;;;;9.37;100.00;99996.66;5011514;28;19921;-74
2024/03/27 06:35:22;;;;;;;;;;;;;;;9.39;100.00;100001.88;5011670;28;19921;-74
2024/03/27 06:37:48;;;;;;;;;;;;;;;9.35;100.00;100005.19;5011105;28;20399;-73
2024/03/27 06:40:14;;;;;;;;;;;;;;;9.32;100.00;100005.94;5011272;28;19922;-73
2024/03/27 06:42:40;;;;;;;;;;;;;;;9.35;100.00;100010.31;5011123;28;20771;-74
2024/03/27 06:45:05;;;;;;;;;;;;;;;9.38;100.00;100003.59;5011090;28;19921;-74
2024/03/27 06:47:32;;;;;;;;;;;;;;;9.37;100.00;100006.97;5007097;28;19930;-74
2024/03/27 06:49:57;;;;;;;;;;;;;;;9.46;100.00;99997.78;5011215;28;19964;-74
2024/03/27 06:52:23;;;;;;;;;;;;;;;9.54;100.00;99997.25;5011193;28;19925;-74
2024/03/27 06:54:48;;;;;;;;;;;;;;;9.63;100.00;99990.63;5009430;28;19925;-74
2024/03/27 06:57:14;;;;;;;;;;;;;;;9.69;100.00;99991.72;5010981;28;20292;-74
2024/03/27 06:59:39;;;;;;;;;;;;;;;9.84;100.00;99998.19;5011346;28;19921;-75
2024/03/27 07:02:05;;;;;;;;;;;;;;;9.94;100.00;99996.78;5011523;28;19924;-75
2024/03/27 07:04:30;;;;;;;;;;;;;;;10.00;100.00;99999.56;5015326;28;20310;-74
2024/03/27 07:06:56;;;;;;;;;;;;;;;10.12;100.00;100015.44;5024969;28;19921;-74
2024/03/27 07:09:21;;;;;;;;;;;;;;;10.16;100.00;100006.94;5020465;28;20284;-75
2024/03/27 07:11:46;;;;;;;;;;;;;;;10.20;100.00;100001.06;5001946;28;19925;-74
2024/03/27 07:14:12;;;;;;;;;;;;;;;10.29;100.00;100000.47;5020349;28;20507;-75
2024/03/27 07:16:37;;;;;;;;;;;;;;;10.35;100.00;100000.66;5018679;28;19940;-74
2024/03/27 07:19:04;;;;;;;;;;;;;;;10.43;100.00;100008.66;5017181;28;19927;-74
2024/03/27 07:21:32;;;;;;;;;;;;;;;10.50;100.00;100014.88;5020026;28;19922;-74
2024/03/27 07:23:59;;;;;;;;;;;;;;;10.57;100.00;100003.03;5019866;28;19928;-74
2024/03/27 07:26:24;;;;;;;;;;;;;;;10.64;100.00;100005.84;5021204;28;19925;-74
2024/03/27 07:28:49;;;;;;;;;;;;;;;10.69;100.00;100003.38;5020527;28;19924;-75
2024/03/27 07:31:14;;;;;;;;;;;;;;;10.78;100.00;100001.06;5022459;28;19924;-74
2024/03/27 07:33:40;;;;;;;;;;;;;;;10.87;100.00;100000.44;5022082;28;20028;-74
2024/03/27 07:36:05;;;;;;;;;;;;;;;10.97;100.00;99999.00;5021647;28;20390;-74
2024/03/27 07:38:31;;;;;;;;;;;;;;;11.07;100.00;100006.16;5021388;28;20284;-74
2024/03/27 07:40:56;;;;;;;;;;;;;;;11.15;100.00;100003.78;5023789;28;19984;-74
2024/03/27 07:43:21;;;;;;;;;;;;;;;11.19;100.00;99999.56;5024810;28;20356;-75
2024/03/27 07:45:47;;;;;;;;;;;;;;;11.22;100.00;99997.09;5025024;28;20394;-75
2024/03/27 07:48:14;;;;;;;;;;;;;;;11.30;100.00;100005.91;5024078;28;20152;-74
2024/03/27 07:50:39;;;;;;;;;;;;;;;11.32;100.00;100009.41;5025685;28;19976;-75
2024/03/27 07:53:05;;;;;;;;;;;;;;;11.28;100.00;100002.44;5026075;28;19979;-75
2024/03/27 07:55:30;;;;;;;;;;;;;;;11.30;100.00;100006.78;5021051;28;19925;-75
2024/03/27 07:57:55;;;;;;;;;;;;;;;11.44;100.00;100008.84;5023815;28;19931;-74
2024/03/27 08:00:21;;;;;;;;;;;;;;;11.54;100.00;100004.78;5024165;28;19922;-75
2024/03/27 08:02:46;;;;;;;;;;;;;;;11.69;100.00;100009.47;5025821;28;19913;-75
2024/03/27 08:05:12;;;;;;;;;;;;;;;11.79;100.00;99999.41;5013502;28;20277;-74
2024/03/27 08:07:37;;;;;;;;;;;;;;;11.86;100.00;99996.97;5014233;28;19927;-75
2024/03/27 08:10:05;;;;;;;;;;;;;;;11.81;100.00;100013.25;5014737;28;19929;-74
2024/03/27 08:12:31;;;;;;;;;;;;;;;11.80;100.00;100013.19;5014419;28;19929;-75
2024/03/27 08:14:56;;;;;;;;;;;;;;;11.82;100.00;100003.78;5013668;28;19918;-74
2024/03/27 08:17:22;;;;;;;;;;;;;;;11.76;100.00;100004.50;5014729;28;19968;-74
2024/03/27 08:19:47;;;;;;;;;;;;;;;11.79;100.00;99989.06;5014180;28;20299;-74
2024/03/27 08:22:12;;;;;;;;;;;;;;;11.77;100.00;99980.38;5014244;28;19980;-74
2024/03/27 08:24:38;;;;;;;;;;;;;;;11.70;100.00;99986.25;5013983;28;20490;-74
2024/03/27 08:27:03;;;;;;;;;;;;;;;11.68;100.00;99980.16;5013836;28;19929;-75
2024/03/27 08:29:31;;;;;;;;;;;;;;;11.71;100.00;99974.19;5014098;28;19924;-75
2024/03/27 08:31:57;;;;;;;;;;;;;;;11.77;100.00;99980.38;5013745;28;19922;-75
2024/03/27 08:34:22;;;;;;;;;;;;;;;11.86;100.00;99982.31;5013894;28;19917;-75
2024/03/27 08:36:48;;;;;;;;;;;;;;;11.92;100.00;99979.00;5014160;28;20039;-75
2024/03/27 08:39:13;;;;;;;;;;;;;;;11.99;100.00;99988.69;5013753;28;19921;-75
2024/03/27 08:41:39;;;;;;;;;;;;;;;11.99;100.00;99978.34;5014232;28;19921;-75
2024/03/27 08:44:04;;;;;;;;;;;;;;;11.97;100.00;99982.59;5013435;28;19924;-74
2024/03/27 08:46:30;;;;;;;;;;;;;;;11.99;100.00;99980.94;5013196;28;19925;-75
2024/03/27 08:48:55;;;;;;;;;;;;;;;12.07;100.00;99981.09;5013220;28;19921;-76
2024/03/27 08:51:22;;;;;;;;;;;;;;;12.06;100.00;99982.84;5013390;28;19925;-75
2024/03/27 08:53:48;;;;;;;;;;;;;;;12.14;100.00;99977.81;5013352;28;19918;-75
2024/03/27 08:56:13;;;;;;;;;;;;;;;12.35;100.00;99973.94;5013435;28;20624;-75
2024/03/27 08:58:39;;;;;;;;;;;;;;;12.57;100.00;99975.28;5013376;28;20469;-76
2024/03/27 09:01:06;;;;;;;;;;;;;;;12.74;100.00;99968.72;5011798;28;19917;-76
2024/03/27 09:03:31;;;;;;;;;;;;;;;12.86;100.00;99962.94;5013846;28;19932;-76
2024/03/27 09:05:56;;;;;;;;;;;;;;;13.02;100.00;99961.50;5021704;28;19921;-76
2024/03/27 09:08:22;;;;;;;;;;;;;;;13.26;100.00;99965.41;5022239;28;19992;-76
2024/03/27 09:10:47;;;;;;;;;;;;;;;13.39;100.00;99966.50;5011563;28;20398;-76
2024/03/27 09:13:12;;;;;;;;;;;;;;;13.51;100.00;99968.44;5024444;28;20380;-76
2024/03/27 09:15:38;;;;;;;;;;;;;;;13.59;100.00;99959.94;5023203;28;19984;-77
2024/03/27 09:18:05;;;;;;;;;;;;;;;13.61;100.00;99962.56;5023723;28;20370;-77
2024/03/27 09:20:30;;;;;;;;;;;;;;;13.70;100.00;99969.63;5021760;28;19957;-77
2024/03/27 09:22:56;;;;;;;;;;;;;;;13.87;100.00;99970.75;5025223;28;19976;-76
2024/03/27 09:25:21;;;;;;;;;;;;;;;14.04;100.00;99970.13;5021274;28;19921;-76
2024/03/27 09:27:46;;;;;;;;;;;;;;;14.17;100.00;99964.28;5022939;28;19921;-76
2024/03/27 09:30:12;;;;;;;;;;;;;;;14.22;100.00;99966.94;5020864;28;19999;-77
2024/03/27 09:32:37;;;;;;;;;;;;;;;14.33;100.00;99957.56;5028079;28;19921;-76
2024/03/27 09:35:04;;;;;;;;;;;;;;;14.38;100.00;99958.50;5026788;28;19968;-76
2024/03/27 09:37:29;;;;;;;;;;;;;;;14.51;100.00;99956.91;5017058;28;20330;-76
2024/03/27 09:39:55;;;;;;;;;;;;;;;14.44;100.00;99952.50;5019686;28;19922;-77
2024/03/27 09:42:21;;;;;;;;;;;;;;;14.50;100.00;99951.72;5021724;28;19996;-76
2024/03/27 09:44:47;;;;;;;;;;;;;;;14.63;100.00;99956.22;5021096;28;19960;-76
2024/03/27 09:47:14;;;;;;;;;;;;;;;14.78;100.00;99955.56;5026468;28;20383;-77
2024/03/27 09:49:39;;;;;;;;;;;;;;;14.86;100.00;99950.44;5023278;28;19984;-76
2024/03/27 09:52:06;;;;;;;;;;;;;;;14.88;100.00;99952.19;5024070;28;20367;-76
2024/03/27 09:54:32;;;;;;;;;;;;;;;15.02;100.00;99949.75;5023195;28;20079;-77
2024/03/27 09:56:58;;;;;;;;;;;;;;;15.10;100.00;99952.41;5022061;28;19988;-77
2024/03/27 09:59:23;;;;;;;;;;;;;;;15.13;100.00;99955.06;5023078;28;19918;-77
2024/03/27 10:01:59;;;;;;;;;;;;;;;15.27;100.00;99955.19;5023506;28;20694;-77
2024/03/27 10:04:24;;;;;;;;;;;;;;;15.49;100.00;99953.66;5011741;28;20388;-77
2024/03/27 10:06:50;;;;;;;;;;;;;;;15.67;100.00;99946.84;5012079;28;19931;-77
2024/03/27 10:09:16;;;;;;;;;;;;;;;15.73;100.00;99954.72;5012054;28;19926;-77
2024/03/27 10:11:42;;;;;;;;;;;;;;;15.66;100.00;99948.59;5012069;28;19922;-78
2024/03/27 10:14:07;;;;;;;;;;;;;;;15.56;100.00;99944.16;5012157;28;19921;-77
2024/03/27 10:16:33;;;;;;;;;;;;;;;15.52;100.00;99945.00;5012312;28;19917;-78
2024/03/27 10:18:58;;;;;;;;;;;;;;;15.73;100.00;99941.69;5011868;28;19924;-78
2024/03/27 10:21:25;;;;;;;;;;;;;;;15.88;100.00;99948.78;5011633;28;19925;-77
2024/03/27 10:23:50;;;;;;;;;;;;;;;16.12;100.00;99937.63;5011636;28;19922;-77
2024/03/27 10:26:17;;;;;;;;;;;;;;;16.24;100.00;99939.44;5011705;28;19932;-77
2024/03/27 10:28:43;;;;;;;;;;;;;;;16.30;100.00;99946.44;5011498;28;19917;-77
2024/03/27 10:31:08;;;;;;;;;;;;;;;16.39;100.00;99948.22;5011551;28;19972;-77
2024/03/27 10:33:33;;;;;;;;;;;;;;;16.44;100.00;99951.69;5012022;28;19918;-77
2024/03/27 10:35:59;;;;;;;;;;;;;;;16.54;100.00;99948.25;5011730;28;19922;-77
2024/03/27 10:38:28;;;;;;;;;;;;;;;16.72;100.00;99944.84;5011763;28;19988;-77
2024/03/27 10:40:55;;;;;;;;;;;;;;;16.84;100.00;99935.34;5011568;28;19979;-77
2024/03/27 10:43:21;;;;;;;;;;;;;;;16.99;100.00;99935.41;5011452;28;19921;-77
2024/03/27 10:45:47;;;;;;;;;;;;;;;17.01;100.00;99933.69;5011681;28;19917;-77
2024/03/27 10:48:13;;;;;;;;;;;;;;;16.97;100.00;99934.50;5011356;28;20162;-77
2024/03/27 10:50:39;;;;;;;;;;;;;;;16.87;100.00;99933.59;5011396;28;20008;-77
2024/03/27 10:53:05;;;;;;;;;;;;;;;16.94;100.00;99929.31;5010898;28;19917;-77
2024/03/27 10:55:36;;;;;;;;;;;;;;;17.06;100.00;99924.13;5011403;28;19972;-77
2024/03/27 10:58:03;;;;;;;;;;;;;;;17.10;100.00;99922.38;5011192;28;19933;-77
2024/03/27 11:00:28;;;;;;;;;;;;;;;17.12;100.00;99920.63;5011201;28;20303;-77
2024/03/27 11:02:53;;;;;;;;;;;;;;;17.10;100.00;99915.41;5010933;28;19925;-77
2024/03/27 11:05:19;;;;;;;;;;;;;;;16.95;100.00;99923.22;5020468;28;19921;-77
2024/03/27 11:07:48;;;;;;;;;;;;;;;17.16;100.00;99916.28;5021232;28;19928;-76
2024/03/27 11:10:23;;;;;;;;;;;;;;;17.29;100.00;99905.00;5021753;28;19955;-76
2024/03/27 11:12:49;;;;;;;;;;;;;;;17.44;100.00;99906.75;4998481;28;19921;-76
2024/03/27 11:15:15;;;;;;;;;;;;;;;17.54;100.00;99903.25;5018706;28;19987;-77
2024/03/27 11:17:48;;;;;;;;;;;;;;;17.73;100.00;99903.22;5028954;28;20367;-76
2024/03/27 11:20:14;;;;;;;;;;;;;;;17.79;100.00;99898.00;5021033;28;19953;-76
2024/03/27 11:22:42;;;;;;;;;;;;;;;17.90;100.00;99895.38;5021787;28;19972;-77
2024/03/27 11:25:11;;;;;;;;;;;;;;;17.88;100.00;99892.78;5022639;28;19928;-77
2024/03/27 11:27:37;;;;;;;;;;;;;;;17.90;100.00;99877.94;5021923;28;19921;-77
2024/03/27 11:30:03;;;;;;;;;;;;;;;18.11;100.00;99881.41;5021241;28;19955;-77
2024/03/27 11:32:32;;;;;;;;;;;;;;;18.24;100.00;99875.28;5002432;28;19921;-77
2024/03/27 11:34:57;;;;;;;;;;;;;;;18.34;100.00;99875.22;5020211;28;19972;-77
2024/03/27 11:37:23;;;;;;;;;;;;;;;18.40;100.00;99869.97;5020120;28;19956;-76
2024/03/27 11:39:48;;;;;;;;;;;;;;;18.61;100.00;99857.69;5017641;28;19932;-76
2024/03/27 11:42:14;;;;;;;;;;;;;;;18.73;100.00;99858.47;5021945;28;19917;-76
2024/03/27 11:44:39;;;;;;;;;;;;;;;18.72;100.00;99856.72;5021980;28;19948;-77
2024/03/27 11:47:04;;;;;;;;;;;;;;;18.72;100.00;99851.50;5013292;28;19929;-77
2024/03/27 11:49:30;;;;;;;;;;;;;;;18.85;100.00;99848.78;5021809;28;19935;-77
2024/03/27 11:51:55;;;;;;;;;;;;;;;18.76;100.00;99852.34;5021606;28;20043;-77
2024/03/27 11:54:20;;;;;;;;;;;;;;;18.74;100.00;99862.81;5020045;28;20442;-77
2024/03/27 11:56:46;;;;;;;;;;;;;;;18.71;100.00;99856.75;5022394;28;20296;-77
2024/03/27 11:59:11;;;;;;;;;;;;;;;18.76;100.00;99858.44;5021861;28;20004;-77
2024/03/27 12:01:36;;;;;;;;;;;;;;;18.88;100.00;99852.25;5022033;28;19925;-77
2024/03/27 12:04:03;;;;;;;;;;;;;;;18.84;100.00;99855.78;5010494;28;19925;-77
2024/03/27 12:06:29;;;;;;;;;;;;;;;18.78;100.00;99853.22;5010598;28;19921;-77
2024/03/27 12:08:54;;;;;;;;;;;;;;;18.59;100.00;99848.09;5010528;28;19917;-77
2024/03/27 12:11:20;;;;;;;;;;;;;;;18.74;100.00;99851.47;5010352;28;20016;-78
2024/03/27 12:13:46;;;;;;;;;;;;;;;18.93;100.00;99847.03;5010448;28;19917;-77
2024/03/27 12:16:12;;;;;;;;;;;;;;;19.12;100.00;99844.28;5010571;28;20379;-77
2024/03/27 12:18:39;;;;;;;;;;;;;;;19.12;100.00;99839.03;5010640;28;20296;-77
2024/03/27 12:21:14;;;;;;;;;;;;;;;19.05;100.00;99838.22;5010461;28;19921;-77
2024/03/27 12:23:40;;;;;;;;;;;;;;;19.12;100.00;99831.19;5005759;28;19918;-77
2024/03/27 12:26:13;;;;;;;;;;;;;;;19.09;100.00;99829.47;5013844;28;19972;-78
2024/03/27 12:28:40;;;;;;;;;;;;;;;19.11;100.00;99832.06;5013815;28;19948;-77
2024/03/27 12:31:05;;;;;;;;;;;;;;;19.14;100.00;99834.66;5012298;28;20315;-77
2024/03/27 12:33:33;;;;;;;;;;;;;;;19.05;100.00;99838.22;5014122;28;19918;-77